CheckWX is a tool to help pilots better visualize weather data.  It is not intended as a substitute for an official pre-flight weather briefing.

16:50:05 UTC

KSLG METAR
Smith Field Airport
Siloam Springs, Arkansas, USA
Current

7 mins ago

KSLG 051643Z AUTO VRB03KT 4SM BR OVC003 10/09 A3014 RMK AO2 TSNO PNO $
Observed
Apr-5 @ 16:43 UTC
Wind
  • Variable at 3 KTS
Visibility
Flight Rules
LIFR
Conditions
Mist
Cloud Levels
  • Overcast at 300' AGL
Temperature
10°C / 50°F
Dewpoint
C / 48°F
Humidity
94%
Altimeter
30.14" Hg
Pressure
1020.62 hPa
Previous

27 mins ago

KSLG 051623Z AUTO 00000KT 2SM BR OVC003 09/09 A3014 RMK AO2 TSNO PNO $
Observed
Apr-5 @ 16:23 UTC
Visibility
Flight Rules
LIFR
Conditions
Mist
Cloud Levels
  • Overcast at 300' AGL
Temperature
C / 48°F
Dewpoint
C / 48°F
Humidity
100%
Altimeter
30.14" Hg
Pressure
1020.62 hPa
Previous

54 mins ago

KSLG 051556Z AUTO 00000KT 1SM BR OVC003 09/08 A3014 RMK AO2 SLP208 T00890083 TSNO PNO $
Observed
Apr-5 @ 15:56 UTC
Visibility
Flight Rules
LIFR
Conditions
Mist
Cloud Levels
  • Overcast at 300' AGL
Temperature
C / 48°F
Dewpoint
C / 46°F
Humidity
94%
Altimeter
30.14" Hg
Pressure
1020.62 hPa